createdAt,value
2018-05-26T00:02:06.884Z,16.10
2018-05-26T00:04:34.466Z,16.00
2018-05-26T00:07:02.038Z,16.10
2018-05-26T00:09:29.681Z,16.10
2018-05-26T00:11:57.355Z,16.00
2018-05-26T00:14:24.952Z,15.90
2018-05-26T00:16:53.281Z,15.80
2018-05-26T00:19:20.958Z,15.70
2018-05-26T00:21:48.524Z,15.70
2018-05-26T00:24:16.084Z,15.60
2018-05-26T00:26:43.790Z,15.50
2018-05-26T00:29:11.365Z,15.40
2018-05-26T00:31:38.939Z,15.40
2018-05-26T00:34:06.507Z,15.30
2018-05-26T00:36:34.243Z,15.30
2018-05-26T00:39:01.823Z,15.40
2018-05-26T00:41:29.484Z,15.40
2018-05-26T00:43:57.053Z,15.40
2018-05-26T00:46:24.634Z,15.30
2018-05-26T00:48:52.360Z,15.20
2018-05-26T00:51:21.755Z,15.10
2018-05-26T00:53:49.335Z,15.10
2018-05-26T00:56:17.045Z,15.10
2018-05-26T00:58:44.636Z,15.20
2018-05-26T01:01:12.177Z,15.20
2018-05-26T01:03:39.743Z,15.10
2018-05-26T01:06:07.533Z,15.10
2018-05-26T01:08:35.298Z,15.00
2018-05-26T01:11:02.904Z,14.90
2018-05-26T01:13:30.565Z,14.90
2018-05-26T01:15:58.905Z,14.80
2018-05-26T01:18:26.472Z,14.70
2018-05-26T01:20:54.043Z,14.70
2018-05-26T01:23:21.800Z,16.90
2018-05-26T01:25:49.385Z,14.70
2018-05-26T01:28:16.948Z,14.70
2018-05-26T01:30:45.290Z,14.60
2018-05-26T01:33:12.848Z,14.60
2018-05-26T01:35:40.428Z,14.50
2018-05-26T01:38:07.976Z,14.50
2018-05-26T01:40:35.715Z,14.50
2018-05-26T01:43:03.295Z,14.40
2018-05-26T01:45:30.908Z,14.30
2018-05-26T01:47:58.551Z,14.30
2018-05-26T01:50:26.092Z,14.20
2018-05-26T01:52:53.936Z,14.20
2018-05-26T01:55:21.623Z,14.20
2018-05-26T01:57:49.444Z,14.30
2018-05-26T02:00:17.014Z,14.30
2018-05-26T02:02:44.608Z,14.30
2018-05-26T02:05:12.168Z,14.20
2018-05-26T02:07:40.493Z,14.10
2018-05-26T02:10:08.275Z,14.10
2018-05-26T02:12:35.831Z,14.10
2018-05-26T02:15:03.408Z,14.00
2018-05-26T02:17:30.988Z,14.00
2018-05-26T02:19:58.579Z,13.90
2018-05-26T02:22:26.457Z,13.90
2018-05-26T02:24:54.037Z,13.90
2018-05-26T02:27:21.599Z,13.90
2018-05-26T02:29:49.196Z,13.90
2018-05-26T02:32:18.259Z,13.70
2018-05-26T02:34:45.829Z,13.70
2018-05-26T02:37:13.408Z,13.70
2018-05-26T02:39:40.973Z,13.70
2018-05-26T02:42:09.277Z,13.60
2018-05-26T02:44:36.831Z,13.60
2018-05-26T02:47:04.492Z,13.70
2018-05-26T02:49:32.079Z,13.60
2018-05-26T02:51:59.732Z,13.60
2018-05-26T02:54:27.305Z,13.60
2018-05-26T02:56:54.877Z,13.60
2018-05-26T02:59:22.429Z,13.50
2018-05-26T03:01:50.001Z,13.50
2018-05-26T03:04:23.104Z,14.90
2018-05-26T03:06:56.162Z,13.50
2018-05-26T03:09:29.373Z,13.50
2018-05-26T03:12:02.613Z,13.50
2018-05-26T03:14:35.648Z,13.40
2018-05-26T03:17:03.247Z,13.30
2018-05-26T03:19:30.829Z,13.30
2018-05-26T03:21:58.404Z,13.30
2018-05-26T03:24:25.992Z,13.30
2018-05-26T03:26:53.717Z,13.40
2018-05-26T03:29:21.300Z,13.30
2018-05-26T03:31:48.865Z,13.30
2018-05-26T03:34:16.427Z,13.30
2018-05-26T03:36:43.975Z,13.30
2018-05-26T03:39:11.552Z,13.30
2018-05-26T03:41:39.271Z,13.30
2018-05-26T03:44:06.984Z,13.40
2018-05-26T03:46:34.562Z,13.40
2018-05-26T03:49:02.163Z,13.30
2018-05-26T03:51:29.750Z,13.40
2018-05-26T03:53:57.363Z,13.40
2018-05-26T03:56:36.704Z,13.50
2018-05-26T03:59:16.101Z,13.50
2018-05-26T04:01:43.808Z,13.50
2018-05-26T04:04:11.371Z,13.50
2018-05-26T04:06:38.961Z,13.60
2018-05-26T04:09:06.511Z,13.60
2018-05-26T04:11:34.125Z,13.70
2018-05-26T04:14:01.710Z,13.70
2018-05-26T04:16:29.272Z,13.70
2018-05-26T04:18:56.842Z,13.80
2018-05-26T04:21:24.388Z,13.80
2018-05-26T04:23:51.992Z,13.80
2018-05-26T04:26:19.540Z,13.80
2018-05-26T04:28:47.151Z,13.80
2018-05-26T04:31:14.713Z,14.00
2018-05-26T04:33:42.279Z,14.10
2018-05-26T04:36:09.855Z,14.10
2018-05-26T04:38:37.469Z,14.20
2018-05-26T04:41:05.985Z,14.30
2018-05-26T04:43:33.560Z,14.30
2018-05-26T04:46:01.201Z,14.40
2018-05-26T04:48:28.805Z,14.40
2018-05-26T04:50:57.139Z,14.80
2018-05-26T04:53:24.714Z,14.80
2018-05-26T04:55:52.557Z,15.00
2018-05-26T04:58:20.128Z,15.10
2018-05-26T05:00:47.888Z,15.00
2018-05-26T05:03:15.597Z,14.90
2018-05-26T05:05:43.262Z,14.90
2018-05-26T05:08:10.808Z,14.90
2018-05-26T05:10:38.385Z,14.90
2018-05-26T05:13:05.970Z,14.90
2018-05-26T05:15:33.528Z,15.00
2018-05-26T05:18:01.106Z,15.10
2018-05-26T05:20:28.693Z,15.30
2018-05-26T05:22:56.286Z,15.40
2018-05-26T05:25:23.845Z,15.50
2018-05-26T05:27:51.473Z,15.50
2018-05-26T05:30:19.017Z,15.60
2018-05-26T05:32:46.596Z,15.70
2018-05-26T05:35:14.972Z,15.80
2018-05-26T05:37:42.542Z,15.80
2018-05-26T05:40:10.119Z,15.80
2018-05-26T05:42:37.724Z,15.80
2018-05-26T05:45:05.258Z,15.90
2018-05-26T05:47:32.861Z,15.90
2018-05-26T05:50:00.656Z,15.80
2018-05-26T05:52:28.213Z,15.80
2018-05-26T05:54:56.016Z,15.90
2018-05-26T05:57:23.589Z,16.00
2018-05-26T05:59:51.165Z,16.00
2018-05-26T06:02:18.962Z,16.10
2018-05-26T06:04:46.564Z,16.20
2018-05-26T06:07:14.115Z,16.20
2018-05-26T06:09:41.712Z,16.30
2018-05-26T06:12:09.262Z,16.40
2018-05-26T06:14:37.012Z,16.40
2018-05-26T06:17:04.600Z,16.50
2018-05-26T06:19:32.176Z,16.60
2018-05-26T06:21:59.813Z,16.70
2018-05-26T06:24:27.388Z,16.70
2018-05-26T06:26:54.952Z,16.80
2018-05-26T06:29:22.520Z,16.90
2018-05-26T06:31:50.168Z,17.10
2018-05-26T06:34:17.691Z,17.20
2018-05-26T06:36:45.428Z,17.30
2018-05-26T06:39:13.754Z,17.50
2018-05-26T06:41:41.319Z,17.50
2018-05-26T06:44:09.157Z,17.70
2018-05-26T06:46:36.745Z,17.90
2018-05-26T06:49:04.320Z,18.00
2018-05-26T06:51:31.947Z,18.10
2018-05-26T06:53:59.508Z,18.20
2018-05-26T06:56:27.092Z,18.40
2018-05-26T06:58:54.671Z,18.60
2018-05-26T07:01:22.237Z,18.90
2018-05-26T07:03:50.594Z,19.10
2018-05-26T07:06:18.152Z,19.10
2018-05-26T07:08:45.895Z,19.30
2018-05-26T07:11:13.544Z,19.30
2018-05-26T07:13:41.296Z,19.40
2018-05-26T07:16:08.855Z,19.50
2018-05-26T07:18:36.435Z,19.60
2018-05-26T07:21:04.178Z,19.90
2018-05-26T07:23:31.945Z,20.30
2018-05-26T07:25:59.529Z,20.30
2018-05-26T07:28:27.527Z,20.30
2018-05-26T07:30:56.145Z,20.60
2018-05-26T07:33:23.720Z,20.60
2018-05-26T07:35:51.309Z,20.60
2018-05-26T07:38:18.900Z,20.60
2018-05-26T07:40:46.444Z,20.70
2018-05-26T07:43:14.014Z,20.70
2018-05-26T07:45:41.604Z,21.00
2018-05-26T07:48:09.180Z,21.10
2018-05-26T07:50:36.748Z,21.10
2018-05-26T07:53:04.348Z,21.20
2018-05-26T07:55:31.888Z,21.50
2018-05-26T07:57:59.438Z,21.50
2018-05-26T08:00:27.272Z,21.60
2018-05-26T08:02:54.824Z,20.90
2018-05-26T08:05:22.473Z,22.00
2018-05-26T08:07:49.981Z,22.00
2018-05-26T08:10:17.653Z,22.10
2018-05-26T08:12:45.225Z,22.10
2018-05-26T08:15:13.060Z,22.30
2018-05-26T08:17:40.636Z,22.50
2018-05-26T08:20:08.243Z,22.50
2018-05-26T08:22:35.879Z,22.60
2018-05-26T08:25:04.415Z,22.90
2018-05-26T08:27:32.251Z,22.80
2018-05-26T08:30:00.053Z,22.90
2018-05-26T08:32:27.660Z,23.00
2018-05-26T08:34:55.261Z,23.00
2018-05-26T08:37:23.022Z,23.10
2018-05-26T08:39:50.588Z,23.10
2018-05-26T08:42:18.185Z,23.30
2018-05-26T08:44:45.774Z,23.60
2018-05-26T08:47:13.380Z,23.50
2018-05-26T08:49:42.173Z,23.70
2018-05-26T08:52:09.764Z,23.80
2018-05-26T08:54:37.316Z,23.80
2018-05-26T08:57:05.136Z,23.80
2018-05-26T08:59:32.707Z,23.90
2018-05-26T09:02:00.280Z,24.00
2018-05-26T09:04:27.867Z,24.20
2018-05-26T09:06:56.203Z,24.40
2018-05-26T09:09:23.769Z,24.30
2018-05-26T09:11:51.354Z,24.60
2018-05-26T09:14:18.919Z,24.70
2018-05-26T09:16:46.491Z,25.00
2018-05-26T09:19:14.290Z,24.90
2018-05-26T09:21:41.872Z,24.90
2018-05-26T09:24:09.552Z,25.20
2018-05-26T09:26:37.130Z,25.30
2018-05-26T09:29:04.748Z,25.60
2018-05-26T09:31:32.342Z,25.60
2018-05-26T09:34:00.733Z,26.00
2018-05-26T09:36:28.288Z,25.90
2018-05-26T09:38:55.938Z,26.10
2018-05-26T09:41:24.318Z,26.40
2018-05-26T09:43:51.905Z,26.40
2018-05-26T09:46:19.491Z,26.50
2018-05-26T09:48:47.299Z,26.60
2018-05-26T09:51:14.890Z,27.00
2018-05-26T09:53:42.479Z,26.90
2018-05-26T09:56:10.064Z,27.10
2018-05-26T09:58:37.635Z,27.00
2018-05-26T10:01:05.244Z,27.30
2018-05-26T10:03:33.662Z,27.60
2018-05-26T10:06:01.397Z,27.60
2018-05-26T10:08:29.028Z,27.80
2018-05-26T10:10:56.795Z,27.90
2018-05-26T10:13:25.151Z,28.00
2018-05-26T10:15:52.760Z,28.00
2018-05-26T10:18:20.324Z,28.70
2018-05-26T10:20:47.893Z,29.00
2018-05-26T10:23:15.493Z,29.50
2018-05-26T10:25:43.054Z,29.90
2018-05-26T10:28:10.677Z,30.60
2018-05-26T10:30:38.277Z,30.90
2018-05-26T10:33:05.871Z,31.10
2018-05-26T10:35:33.531Z,32.00
2018-05-26T10:38:01.081Z,32.60
2018-05-26T10:40:29.407Z,32.90
2018-05-26T10:42:57.162Z,32.90
2018-05-26T10:45:36.585Z,33.10
2018-05-26T10:48:04.146Z,33.30
2018-05-26T10:50:31.737Z,33.70
2018-05-26T10:53:00.869Z,33.70
2018-05-26T10:55:28.491Z,33.70
2018-05-26T10:57:56.059Z,34.00
2018-05-26T11:00:23.654Z,33.90
2018-05-26T11:02:51.228Z,33.80
2018-05-26T11:05:18.774Z,34.20
2018-05-26T11:07:46.351Z,34.30
2018-05-26T11:10:13.917Z,34.80
2018-05-26T11:12:41.663Z,35.30
2018-05-26T11:15:09.242Z,35.00
2018-05-26T11:17:36.829Z,35.20
2018-05-26T11:20:04.404Z,35.30
2018-05-26T11:22:32.018Z,35.20
2018-05-26T11:24:59.786Z,35.40
2018-05-26T11:27:27.438Z,35.20
2018-05-26T11:29:55.091Z,35.40
2018-05-26T11:32:23.454Z,35.90
2018-05-26T11:34:51.016Z,35.90
2018-05-26T11:37:19.688Z,36.40
2018-05-26T11:39:47.241Z,36.40
2018-05-26T11:42:15.615Z,36.20
2018-05-26T11:44:44.048Z,36.00
2018-05-26T11:47:11.619Z,36.00
2018-05-26T11:49:39.207Z,36.40
2018-05-26T11:52:06.761Z,36.50
2018-05-26T11:54:34.480Z,36.50
2018-05-26T11:57:02.049Z,36.90
2018-05-26T11:59:29.909Z,36.70
2018-05-26T12:01:57.534Z,37.40
2018-05-26T12:04:25.138Z,37.60
2018-05-26T12:06:52.705Z,38.10
2018-05-26T12:09:20.324Z,37.90
2018-05-26T12:11:48.656Z,38.30
2018-05-26T12:14:16.452Z,38.20
2018-05-26T12:16:44.796Z,38.20
2018-05-26T12:19:12.373Z,38.30
2018-05-26T12:21:40.033Z,38.80
2018-05-26T12:24:07.629Z,39.00
2018-05-26T12:26:35.388Z,38.80
2018-05-26T12:29:03.764Z,38.40
2018-05-26T12:31:31.370Z,38.40
2018-05-26T12:33:59.193Z,38.20
2018-05-26T12:36:27.792Z,38.20
2018-05-26T12:38:55.366Z,38.10
2018-05-26T12:41:22.980Z,38.30
2018-05-26T12:43:51.355Z,38.90
2018-05-26T12:46:18.956Z,38.90
2018-05-26T12:48:46.541Z,38.50
2018-05-26T12:51:14.171Z,38.50
2018-05-26T12:53:44.942Z,39.00
2018-05-26T12:56:12.579Z,38.70
2018-05-26T12:58:40.169Z,38.30
2018-05-26T13:01:07.757Z,39.10
2018-05-26T13:03:35.461Z,38.80
2018-05-26T13:06:03.035Z,38.20
2018-05-26T13:08:30.646Z,38.20
2018-05-26T13:10:58.971Z,38.80
2018-05-26T13:13:26.596Z,38.80
2018-05-26T13:15:54.274Z,38.70
2018-05-26T13:18:22.049Z,38.70
2018-05-26T13:20:50.430Z,39.10
2018-05-26T13:23:17.992Z,39.00
2018-05-26T13:25:45.863Z,39.30
2018-05-26T13:28:13.429Z,39.30
2018-05-26T13:30:41.024Z,39.10
2018-05-26T13:33:08.574Z,41.10
2018-05-26T13:35:36.190Z,40.40
2018-05-26T13:38:03.816Z,40.50
2018-05-26T13:40:32.207Z,41.20
2018-05-26T13:42:59.897Z,41.20
2018-05-26T13:45:27.519Z,41.20
2018-05-26T13:47:55.108Z,39.90
2018-05-26T13:50:22.700Z,39.70
2018-05-26T13:52:50.260Z,39.50
2018-05-26T13:55:18.669Z,39.90
2018-05-26T13:57:46.236Z,39.90
2018-05-26T14:00:14.059Z,40.90
2018-05-26T14:02:41.746Z,40.80
2018-05-26T14:05:10.847Z,39.80
2018-05-26T14:07:38.586Z,39.70
2018-05-26T14:10:06.299Z,38.30
2018-05-26T14:12:34.196Z,39.30
2018-05-26T14:15:01.800Z,38.70
2018-05-26T14:17:29.405Z,38.80
2018-05-26T14:19:57.132Z,38.20
2018-05-26T14:22:25.532Z,37.00
2018-05-26T14:24:53.134Z,37.00
2018-05-26T14:27:20.710Z,37.70
2018-05-26T14:29:48.272Z,39.10
2018-05-26T14:32:17.397Z,40.10
2018-05-26T14:34:44.948Z,40.10
2018-05-26T14:37:13.309Z,41.70
2018-05-26T14:39:41.033Z,41.70
2018-05-26T14:42:08.627Z,42.70
2018-05-26T14:44:36.188Z,44.00
2018-05-26T14:47:03.736Z,43.00
2018-05-26T14:49:31.469Z,44.00
2018-05-26T14:51:59.186Z,44.20
2018-05-26T14:54:26.772Z,43.00
2018-05-26T14:56:54.595Z,42.70
2018-05-26T14:59:22.203Z,42.30
2018-05-26T15:01:49.792Z,42.90
2018-05-26T15:04:17.375Z,42.60
2018-05-26T15:06:45.031Z,41.60
2018-05-26T15:09:12.761Z,41.70
2018-05-26T15:11:40.624Z,39.80
2018-05-26T15:14:08.268Z,37.90
2018-05-26T15:16:36.071Z,37.80
2018-05-26T15:19:03.659Z,38.10
2018-05-26T15:21:31.227Z,38.00
2018-05-26T15:23:58.799Z,39.50
2018-05-26T15:26:27.424Z,40.80
2018-05-26T15:28:54.997Z,40.80
2018-05-26T15:31:22.590Z,40.30
2018-05-26T15:33:50.164Z,40.00
2018-05-26T15:36:17.858Z,39.80
2018-05-26T15:38:45.490Z,39.70
2018-05-26T15:41:13.101Z,39.10
2018-05-26T15:43:40.730Z,40.00
2018-05-26T15:46:08.332Z,39.30
2018-05-26T15:48:35.908Z,38.70
2018-05-26T15:51:03.483Z,38.20
2018-05-26T15:53:31.237Z,37.90
2018-05-26T15:55:58.832Z,38.50
2018-05-26T15:58:26.421Z,38.10
2018-05-26T16:00:53.989Z,37.50
2018-05-26T16:03:21.563Z,37.50
2018-05-26T16:05:49.127Z,37.30
2018-05-26T16:08:16.698Z,36.20
2018-05-26T16:10:44.308Z,36.10
2018-05-26T16:13:11.973Z,34.70
2018-05-26T16:15:39.612Z,34.50
2018-05-26T16:18:07.168Z,33.80
2018-05-26T16:20:34.848Z,33.30
2018-05-26T16:23:02.425Z,33.00
2018-05-26T16:25:30.099Z,32.80
2018-05-26T16:27:57.773Z,32.20
2018-05-26T16:30:25.396Z,32.20
2018-05-26T16:32:52.963Z,32.30
2018-05-26T16:35:20.710Z,32.10
2018-05-26T16:37:48.255Z,32.00
2018-05-26T16:40:15.863Z,32.50
2018-05-26T16:42:43.532Z,32.40
2018-05-26T16:45:11.116Z,32.20
2018-05-26T16:47:38.684Z,32.00
2018-05-26T16:50:06.292Z,31.50
2018-05-26T16:52:34.172Z,31.00
2018-05-26T16:55:01.743Z,30.30
2018-05-26T16:57:29.355Z,29.90
2018-05-26T16:59:57.228Z,28.60
2018-05-26T17:02:24.844Z,29.30
2018-05-26T17:04:52.403Z,29.20
2018-05-26T17:07:20.025Z,28.70
2018-05-26T17:09:47.637Z,28.80
2018-05-26T17:12:15.247Z,28.70
2018-05-26T17:14:42.842Z,28.60
2018-05-26T17:17:10.429Z,28.50
2018-05-26T17:19:37.980Z,28.40
2018-05-26T17:22:06.450Z,28.20
2018-05-26T17:24:34.460Z,28.10
2018-05-26T17:27:02.047Z,28.10
2018-05-26T17:29:29.624Z,28.10
2018-05-26T17:31:57.219Z,28.10
2018-05-26T17:34:24.976Z,28.00
2018-05-26T17:36:53.325Z,27.50
2018-05-26T17:39:20.924Z,27.50
2018-05-26T17:41:49.257Z,27.20
2018-05-26T17:44:16.853Z,27.10
2018-05-26T17:46:44.858Z,27.30
2018-05-26T17:49:13.348Z,27.30
2018-05-26T17:51:40.929Z,27.20
2018-05-26T17:54:08.538Z,27.00
2018-05-26T17:56:39.076Z,26.60
2018-05-26T17:59:06.669Z,26.30
2018-05-26T18:01:34.244Z,26.10
2018-05-26T18:04:01.811Z,26.00
2018-05-26T18:06:29.400Z,25.80
2018-05-26T18:08:56.981Z,25.60
2018-05-26T18:11:24.669Z,25.50
2018-05-26T18:13:52.302Z,25.30
2018-05-26T18:16:19.908Z,25.20
2018-05-26T18:18:47.495Z,25.10
2018-05-26T18:21:15.852Z,24.80
2018-05-26T18:23:43.455Z,24.80
2018-05-26T18:26:11.037Z,24.60
2018-05-26T18:28:38.770Z,24.50
2018-05-26T18:31:07.221Z,24.30
2018-05-26T18:33:34.871Z,24.30
2018-05-26T18:36:02.477Z,24.20
2018-05-26T18:38:30.105Z,24.00
2018-05-26T18:40:57.670Z,23.90
2018-05-26T18:43:25.272Z,23.70
2018-05-26T18:45:52.835Z,23.50
2018-05-26T18:48:20.442Z,23.40
2018-05-26T18:50:47.997Z,23.30
2018-05-26T18:53:15.592Z,23.10
2018-05-26T18:55:43.225Z,23.00
2018-05-26T18:58:10.832Z,22.80
2018-05-26T19:00:38.534Z,22.60
2018-05-26T19:03:06.108Z,22.50
2018-05-26T19:05:34.706Z,22.30
2018-05-26T19:08:03.184Z,22.20
2018-05-26T19:10:31.587Z,22.10
2018-05-26T19:12:59.135Z,22.10
2018-05-26T19:15:27.474Z,21.90
2018-05-26T19:17:55.240Z,21.90
2018-05-26T19:20:22.872Z,21.80
2018-05-26T19:22:51.750Z,21.50
2018-05-26T19:25:19.356Z,21.40
2018-05-26T19:27:46.966Z,21.40
2018-05-26T19:30:14.561Z,21.20
2018-05-26T19:32:42.139Z,21.10
2018-05-26T19:35:09.729Z,21.00
2018-05-26T19:37:38.095Z,20.80
2018-05-26T19:40:05.793Z,20.70
2018-05-26T19:42:33.411Z,20.60
2018-05-26T19:45:01.189Z,20.50
2018-05-26T19:47:29.607Z,20.20
2018-05-26T19:49:57.279Z,20.20
2018-05-26T19:52:24.778Z,20.10
2018-05-26T19:54:53.425Z,19.80
2018-05-26T19:57:21.016Z,19.70
2018-05-26T19:59:48.724Z,19.70
2018-05-26T20:02:16.296Z,19.60
2018-05-26T20:04:44.085Z,19.50
2018-05-26T20:07:11.694Z,19.40
2018-05-26T20:09:39.262Z,19.30
2018-05-26T20:12:06.893Z,19.20
2018-05-26T20:14:35.513Z,19.10
2018-05-26T20:17:03.131Z,19.00
2018-05-26T20:19:31.537Z,18.90
2018-05-26T20:22:00.031Z,18.90
2018-05-26T20:24:28.497Z,18.80
2018-05-26T20:26:56.903Z,18.70
2018-05-26T20:29:24.485Z,18.70
2018-05-26T20:31:52.042Z,18.60
2018-05-26T20:34:19.675Z,18.60
2018-05-26T20:36:47.278Z,18.50
2018-05-26T20:39:16.396Z,18.30
2018-05-26T20:41:43.972Z,18.30
2018-05-26T20:44:11.568Z,18.30
2018-05-26T20:46:39.151Z,18.20
2018-05-26T20:49:06.872Z,18.20
2018-05-26T20:51:34.533Z,18.20
2018-05-26T20:54:02.338Z,18.10
2018-05-26T20:56:29.902Z,18.00
2018-05-26T20:58:57.581Z,18.00
2018-05-26T21:01:25.215Z,17.80
2018-05-26T21:03:52.787Z,17.80
2018-05-26T21:06:20.454Z,17.70
2018-05-26T21:08:48.057Z,17.70
2018-05-26T21:11:15.672Z,17.70
2018-05-26T21:13:43.257Z,17.60
2018-05-26T21:16:10.859Z,17.60
2018-05-26T21:18:38.428Z,17.40
2018-05-26T21:21:06.059Z,17.30
2018-05-26T21:23:33.647Z,17.20
2018-05-26T21:26:01.257Z,17.20
2018-05-26T21:28:29.600Z,17.10
2018-05-26T21:30:57.347Z,17.00
2018-05-26T21:33:25.009Z,17.00
2018-05-26T21:35:52.623Z,16.90
2018-05-26T21:38:20.227Z,16.90
2018-05-26T21:40:47.870Z,16.80
2018-05-26T21:43:15.832Z,16.80
2018-05-26T21:45:43.559Z,16.70
2018-05-26T21:48:11.329Z,16.70
2018-05-26T21:50:38.928Z,16.70
2018-05-26T21:53:06.880Z,16.60
2018-05-26T21:55:34.457Z,16.50
2018-05-26T21:58:02.114Z,16.40
2018-05-26T22:00:29.678Z,16.50
2018-05-26T22:02:57.279Z,16.40
2018-05-26T22:05:25.066Z,16.40
2018-05-26T22:07:53.401Z,16.50
2018-05-26T22:10:22.311Z,16.50
2018-05-26T22:12:51.516Z,16.30
2018-05-26T22:15:19.098Z,16.30
2018-05-26T22:17:46.991Z,16.30
2018-05-26T22:20:14.657Z,16.20
2018-05-26T22:22:42.291Z,16.10
2018-05-26T22:25:09.902Z,16.00
2018-05-26T22:27:37.453Z,16.10
2018-05-26T22:30:05.059Z,16.10
2018-05-26T22:32:32.623Z,16.10
2018-05-26T22:35:00.984Z,16.00
2018-05-26T22:37:28.573Z,16.00
2018-05-26T22:39:56.954Z,15.90
2018-05-26T22:42:24.648Z,15.90
2018-05-26T22:44:52.241Z,15.80
2018-05-26T22:47:20.601Z,15.70
2018-05-26T22:49:48.182Z,15.60
2018-05-26T22:52:15.836Z,15.60
2018-05-26T22:54:43.397Z,15.50
2018-05-26T22:57:11.007Z,15.50
2018-05-26T22:59:38.649Z,15.40
2018-05-26T23:02:06.251Z,15.30
2018-05-26T23:04:33.840Z,15.30
2018-05-26T23:07:01.499Z,15.30
2018-05-26T23:09:29.011Z,15.20
2018-05-26T23:11:56.842Z,15.10
2018-05-26T23:14:25.187Z,15.10
2018-05-26T23:16:53.068Z,15.10
2018-05-26T23:19:20.615Z,15.20
2018-05-26T23:21:48.352Z,15.10
2018-05-26T23:24:16.010Z,15.00
2018-05-26T23:26:44.422Z,14.90
2018-05-26T23:29:12.041Z,14.90
2018-05-26T23:31:39.604Z,14.90
2018-05-26T23:34:07.223Z,14.80
2018-05-26T23:36:34.801Z,14.80
2018-05-26T23:39:02.381Z,14.70
2018-05-26T23:41:29.912Z,14.70
2018-05-26T23:43:58.370Z,14.60
2018-05-26T23:46:26.015Z,14.60
2018-05-26T23:48:53.644Z,14.60
2018-05-26T23:51:21.205Z,14.50
2018-05-26T23:53:48.775Z,14.50
2018-05-26T23:56:16.327Z,14.50
2018-05-26T23:58:43.958Z,14.50
